Airfield :
LOGIN :

Register | Disclaimer

   EN    FR    IT 

 










Legend :    VFR   Marginal VFR   IFR   Intensive IFR   Very Intensive IFR
Visi :
Ceiling :
>= 8 km
>= 3000ft
5 to 8 km
1000 to 3000 ft
1500m to 5 km
500 to 1000 ft
800 to 1500m
200 to 500 ft
< 800m
< 200 ft
Symbols :   Thunderstorms  Fog  Heavy snow  Heavy precipitations  Wind > 20 kt
SIGMETs :     Misc.  Thunderstorms  Icing  Turbulence  Mountain Waves  Volcanic Ashes






- Airport Elevation : 172 ft
- IATA code : LPI


ESSL - Saab

CURRENT METAR :
  • 021720Z AUTO 28012KT 250V310 9999 NCD 21/10 Q1018

EXPIRED METARs :
  • 021650Z AUTO 28011KT 240V310 9999 FEW049/// 21/10 Q1018
  • 021620Z AUTO 26010KT 220V290 9999 FEW049/// 22/10 Q1018
  • 021550Z AUTO 27012KT 230V300 9999 NCD 21/10 Q1018
  • 021520Z 26011KT 220V300 9999 FEW049 21/10 Q1018
  • 021450Z 25011KT 210V290 9999 FEW048 22/11 Q1018
  • 020250Z AUTO VRB02KT 4800 -RA FEW005/// SCT013/// BKN043/// 19/19 Q1011

Expired Forecast.



MET'MAP, your aeronautical weather chart ! - Copyright ORBIFLY December 2007 - Disclaimer

ORBIFLY MET'MAP TEAM :

Programming & Development : Alexandra Zaïnal
Original concept : Baudouin d'Aumeries
Technical & hardware support : Manuel Goepfert
Assistance : Marc-Olivier Méhu




SOURCES & CREDITS :

   NOAA